Time;durP1;ratioP1;P1;durP2;ratioP2;P2;SDS_P1;SDS_P2;PMS_P1;PMS_P2;Temp;Humidity;BMP_temperature;BMP_pressure;BME280_temperature;BME280_humidity;BME280_pressure;Samples;Min_cycle;Max_cycle;Signal;HPM_P1;HPM_P2
2021/05/21 00:01:40;;;;;;;;;;;8.10;99.90;;;;;;8363879;28;19978;-65
2021/05/21 00:05:40;;;;;;;;;;;8.00;99.90;;;;;;8363425;28;19920;-65
2021/05/21 00:09:41;;;;;;;;;;;8.00;99.90;;;;;;8363461;28;19948;-64
2021/05/21 00:13:41;;;;;;;;;;;8.00;99.90;;;;;;8363205;28;19962;-65
2021/05/21 00:17:42;;;;;;;;;;;7.90;99.90;;;;;;8363154;28;19995;-65
2021/05/21 00:21:42;;;;;;;;;;;8.10;99.90;;;;;;8363313;28;20008;-64
2021/05/21 00:25:42;;;;;;;;;;;8.40;99.90;;;;;;8344996;28;20398;-65
2021/05/21 00:29:43;;;;;;;;;;;8.10;99.90;;;;;;8362718;28;20000;-64
2021/05/21 00:33:44;;;;;;;;;;;8.10;99.90;;;;;;8345218;28;19951;-65
2021/05/21 00:37:44;;;;;;;;;;;8.00;99.90;;;;;;8362459;28;19943;-65
2021/05/21 00:41:45;;;;;;;;;;;7.90;99.90;;;;;;8362436;28;20057;-65
2021/05/21 00:45:45;;;;;;;;;;;7.80;99.90;;;;;;8362210;28;19909;-64
2021/05/21 00:49:46;;;;;;;;;;;7.90;99.90;;;;;;8344243;28;19955;-65
2021/05/21 00:53:46;;;;;;;;;;;7.90;99.90;;;;;;8361960;28;20003;-64
2021/05/21 00:57:47;;;;;;;;;;;7.90;99.90;;;;;;8361675;28;19932;-65
2021/05/21 01:01:47;;;;;;;;;;;8.10;99.90;;;;;;8361833;28;20375;-65
2021/05/21 01:05:48;;;;;;;;;;;8.00;99.90;;;;;;8360864;28;19917;-65
2021/05/21 01:09:52;;;;;;;;;;;8.00;99.90;;;;;;8343389;28;19915;-66
2021/05/21 01:13:52;;;;;;;;;;;7.90;99.90;;;;;;8361196;28;19912;-65
2021/05/21 01:17:53;;;;;;;;;;;7.80;99.90;;;;;;8361025;28;19931;-64
2021/05/21 01:21:53;;;;;;;;;;;7.70;99.90;;;;;;8360792;28;19966;-64
2021/05/21 01:25:54;;;;;;;;;;;7.70;99.90;;;;;;8342987;28;20003;-64
2021/05/21 01:29:54;;;;;;;;;;;8.00;99.90;;;;;;8360556;28;19909;-65
2021/05/21 01:33:55;;;;;;;;;;;8.10;99.90;;;;;;8360221;28;20386;-64
2021/05/21 01:37:55;;;;;;;;;;;8.20;99.90;;;;;;8360059;28;19999;-65
2021/05/21 01:41:56;;;;;;;;;;;8.10;99.90;;;;;;8360275;28;20016;-65
2021/05/21 01:45:57;;;;;;;;;;;8.20;99.90;;;;;;8359982;28;19909;-65
2021/05/21 01:49:58;;;;;;;;;;;8.00;99.90;;;;;;8359898;28;19909;-65
2021/05/21 01:54:09;;;;;;;;;;;8.00;99.90;;;;;;8342050;28;19916;-65
2021/05/21 01:58:09;;;;;;;;;;;8.00;99.90;;;;;;8342040;28;19908;-65
2021/05/21 02:02:10;;;;;;;;;;;8.00;99.90;;;;;;8359514;28;20383;-65
2021/05/21 02:06:10;;;;;;;;;;;8.10;99.90;;;;;;8359403;28;19948;-65
2021/05/21 02:10:11;;;;;;;;;;;8.30;99.90;;;;;;8359395;28;20458;-65
2021/05/21 02:14:11;;;;;;;;;;;8.50;99.90;;;;;;8359623;28;19916;-65
2021/05/21 02:18:12;;;;;;;;;;;8.70;99.90;;;;;;8341046;28;19909;-64
2021/05/21 02:22:13;;;;;;;;;;;8.90;99.90;;;;;;8359311;28;19917;-65
2021/05/21 02:26:13;;;;;;;;;;;9.10;99.90;;;;;;8359544;28;19917;-65
2021/05/21 02:30:14;;;;;;;;;;;9.30;99.90;;;;;;8359153;28;19909;-64
2021/05/21 02:34:15;;;;;;;;;;;9.20;99.90;;;;;;8358921;28;19909;-64
2021/05/21 02:38:16;;;;;;;;;;;9.10;99.90;;;;;;8359372;28;19958;-64
2021/05/21 02:42:16;;;;;;;;;;;9.10;99.90;;;;;;8358864;28;19916;-65
2021/05/21 02:46:17;;;;;;;;;;;9.10;99.90;;;;;;8341310;28;19955;-65
2021/05/21 02:50:17;;;;;;;;;;;9.20;99.90;;;;;;8341296;28;19956;-65
2021/05/21 02:54:18;;;;;;;;;;;9.00;99.90;;;;;;8358796;28;19916;-64
2021/05/21 02:58:19;;;;;;;;;;;8.90;99.90;;;;;;8358719;28;19943;-65
2021/05/21 03:02:21;;;;;;;;;;;9.00;99.90;;;;;;8358351;28;20046;-65
2021/05/21 03:06:21;;;;;;;;;;;9.00;99.90;;;;;;8358616;28;19924;-65
2021/05/21 03:10:22;;;;;;;;;;;8.80;99.90;;;;;;8358692;28;19909;-65
2021/05/21 03:14:22;;;;;;;;;;;8.80;99.90;;;;;;8358070;28;19916;-64
2021/05/21 03:18:23;;;;;;;;;;;8.80;99.90;;;;;;8358236;28;19909;-64
2021/05/21 03:22:24;;;;;;;;;;;8.80;99.90;;;;;;8340055;28;20031;-65
2021/05/21 03:26:25;;;;;;;;;;;8.70;99.90;;;;;;8358309;28;19920;-64
2021/05/21 03:30:25;;;;;;;;;;;8.80;99.90;;;;;;8360267;28;20539;-65
2021/05/21 03:34:26;;;;;;;;;;;8.80;99.90;;;;;;8363870;28;19913;-65
2021/05/21 03:38:27;;;;;;;;;;;8.70;99.90;;;;;;8364029;28;19940;-65
2021/05/21 03:42:28;;;;;;;;;;;8.70;99.90;;;;;;8363739;28;19924;-65
2021/05/21 03:46:29;;;;;;;;;;;8.60;99.90;;;;;;8363818;28;19909;-65
2021/05/21 03:50:30;;;;;;;;;;;8.70;99.90;;;;;;8363759;28;19909;-64
2021/05/21 03:54:30;;;;;;;;;;;8.60;99.90;;;;;;8363423;28;20465;-65
2021/05/21 03:58:33;;;;;;;;;;;8.70;99.90;;;;;;8345573;28;19951;-65
2021/05/21 04:02:33;;;;;;;;;;;8.80;99.90;;;;;;8362508;28;19927;-64
2021/05/21 04:06:34;;;;;;;;;;;9.00;99.90;;;;;;8363188;28;20640;-64
2021/05/21 04:10:36;;;;;;;;;;;9.20;99.90;;;;;;8363102;28;20326;-65
2021/05/21 04:14:36;;;;;;;;;;;9.30;99.90;;;;;;8362854;28;19909;-65
2021/05/21 04:18:36;;;;;;;;;;;9.40;99.90;;;;;;8362192;28;20382;-65
2021/05/21 04:22:37;;;;;;;;;;;9.60;99.90;;;;;;8362215;28;19924;-65
2021/05/21 04:26:37;;;;;;;;;;;10.20;99.90;;;;;;8362381;28;19919;-65
2021/05/21 04:30:38;;;;;;;;;;;10.50;99.90;;;;;;8344441;28;19959;-64
2021/05/21 04:34:40;;;;;;;;;;;10.90;99.90;;;;;;8343828;28;19916;-64
2021/05/21 04:38:40;;;;;;;;;;;11.20;99.90;;;;;;8362163;28;20379;-64
2021/05/21 04:42:42;;;;;;;;;;;11.30;99.90;;;;;;8360769;28;19917;-65
2021/05/21 04:46:42;;;;;;;;;;;11.40;99.90;;;;;;8360689;28;19913;-65
2021/05/21 04:50:43;;;;;;;;;;;11.50;99.90;;;;;;8361316;28;19909;-65
2021/05/21 04:54:43;;;;;;;;;;;11.60;99.90;;;;;;8360877;28;19916;-65
2021/05/21 04:58:44;;;;;;;;;;;11.70;99.90;;;;;;8360784;28;19913;-65
2021/05/21 05:02:45;;;;;;;;;;;11.70;99.90;;;;;;8359489;28;19917;-65
2021/05/21 05:06:46;;;;;;;;;;;11.80;99.90;;;;;;8324659;28;19920;-65
2021/05/21 05:10:48;;;;;;;;;;;11.90;99.90;;;;;;8338661;28;20360;-65
2021/05/21 05:14:48;;;;;;;;;;;12.10;99.90;;;;;;8323795;28;19913;-64
2021/05/21 05:18:49;;;;;;;;;;;12.30;99.90;;;;;;8334098;28;20338;-65
2021/05/21 05:22:51;;;;;;;;;;;12.40;99.90;;;;;;8310091;28;19913;-69
2021/05/21 05:26:51;;;;;;;;;;;12.50;99.90;;;;;;8310022;28;19913;-69
2021/05/21 05:30:52;;;;;;;;;;;12.70;99.90;;;;;;8336452;28;19995;-69
2021/05/21 05:34:52;;;;;;;;;;;12.80;99.90;;;;;;8351746;28;19913;-70
2021/05/21 05:38:53;;;;;;;;;;;12.70;99.90;;;;;;8324363;28;19913;-65
2021/05/21 05:42:53;;;;;;;;;;;12.80;99.90;;;;;;8356180;28;19917;-64
2021/05/21 05:46:54;;;;;;;;;;;12.80;99.90;;;;;;8335284;28;19914;-65
2021/05/21 05:50:54;;;;;;;;;;;12.90;99.90;;;;;;8327209;28;19909;-64
2021/05/21 05:54:55;;;;;;;;;;;13.00;99.90;;;;;;8337536;28;19963;-64
2021/05/21 05:58:55;;;;;;;;;;;13.20;99.90;;;;;;8339045;28;19913;-65
2021/05/21 06:02:56;;;;;;;;;;;13.10;99.90;;;;;;8336773;28;20371;-64
2021/05/21 06:06:56;;;;;;;;;;;13.20;99.90;;;;;;8341007;28;19923;-64
2021/05/21 06:10:57;;;;;;;;;;;13.50;99.90;;;;;;8343149;28;19952;-64
2021/05/21 06:14:58;;;;;;;;;;;13.70;99.90;;;;;;8312278;28;19943;-65
2021/05/21 06:18:59;;;;;;;;;;;13.90;99.90;;;;;;8337414;28;19912;-64
2021/05/21 06:23:02;;;;;;;;;;;14.00;99.90;;;;;;8339104;28;20013;-65
2021/05/21 06:31:09;;;;;;;;;;;14.10;99.90;;;;;;8337669;28;20431;-65
2021/05/21 06:35:11;;;;;;;;;;;14.20;99.90;;;;;;8335468;28;19913;-70
2021/05/21 06:39:11;;;;;;;;;;;14.20;99.90;;;;;;8325555;28;19992;-70
2021/05/21 06:43:15;;;;;;;;;;;14.50;99.90;;;;;;8338326;28;19917;-69
2021/05/21 06:47:15;;;;;;;;;;;14.60;99.90;;;;;;8350533;28;19967;-65
2021/05/21 06:51:16;;;;;;;;;;;14.80;99.90;;;;;;8343034;28;19913;-64
2021/05/21 06:55:16;;;;;;;;;;;15.10;99.90;;;;;;8342431;28;20015;-63
2021/05/21 06:59:16;;;;;;;;;;;15.30;99.90;;;;;;8348042;28;20338;-65
2021/05/21 07:03:17;;;;;;;;;;;15.50;99.90;;;;;;8328547;28;19923;-65
2021/05/21 07:07:18;;;;;;;;;;;15.60;99.90;;;;;;8363189;28;19978;-64
2021/05/21 07:11:18;;;;;;;;;;;15.70;99.90;;;;;;8342580;28;20335;-65
2021/05/21 07:15:19;;;;;;;;;;;15.60;99.90;;;;;;8349202;28;19917;-65
2021/05/21 07:19:19;;;;;;;;;;;15.40;99.90;;;;;;8349356;28;19917;-65
2021/05/21 07:23:20;;;;;;;;;;;15.40;99.90;;;;;;8349519;28;19963;-66
2021/05/21 07:27:20;;;;;;;;;;;15.40;99.90;;;;;;8360318;28;19921;-65
2021/05/21 07:31:26;;;;;;;;;;;15.60;99.90;;;;;;8350110;28;19921;-65
2021/05/21 07:35:26;;;;;;;;;;;15.60;99.90;;;;;;8338152;28;20295;-72
2021/05/21 07:39:27;;;;;;;;;;;15.80;99.90;;;;;;8344349;28;19909;-71
2021/05/21 07:43:27;;;;;;;;;;;16.00;99.90;;;;;;8360531;28;19917;-71
2021/05/21 07:47:28;;;;;;;;;;;16.20;99.90;;;;;;8347282;28;19974;-71
2021/05/21 07:51:28;;;;;;;;;;;16.40;99.90;;;;;;8331197;28;19919;-65
2021/05/21 07:55:29;;;;;;;;;;;16.50;99.90;;;;;;8360820;28;19913;-65
2021/05/21 07:59:29;;;;;;;;;;;16.50;99.90;;;;;;8362578;28;19970;-65
2021/05/21 08:03:30;;;;;;;;;;;16.20;99.90;;;;;;8361816;28;19923;-64
2021/05/21 08:07:30;;;;;;;;;;;16.00;99.90;;;;;;8362425;28;19974;-65
2021/05/21 08:11:32;;;;;;;;;;;16.10;99.90;;;;;;8361905;28;20007;-65
2021/05/21 08:15:32;;;;;;;;;;;16.40;99.90;;;;;;8360260;28;20279;-65
2021/05/21 08:19:33;;;;;;;;;;;16.50;99.90;;;;;;8356289;28;19919;-65
2021/05/21 08:23:34;;;;;;;;;;;16.50;99.90;;;;;;8358449;28;20019;-65
2021/05/21 08:27:34;;;;;;;;;;;16.50;99.90;;;;;;8358450;28;19913;-65
2021/05/21 08:31:36;;;;;;;;;;;16.20;99.90;;;;;;8353303;28;19940;-65
2021/05/21 08:35:36;;;;;;;;;;;16.10;99.90;;;;;;8351548;28;19913;-65
2021/05/21 08:39:39;;;;;;;;;;;16.00;99.90;;;;;;8328986;28;19952;-64
2021/05/21 08:43:44;;;;;;;;;;;16.10;99.90;;;;;;8324089;28;20074;-65
2021/05/21 08:47:45;;;;;;;;;;;16.30;99.90;;;;;;8335258;28;19943;-66
2021/05/21 08:51:46;;;;;;;;;;;16.20;99.90;;;;;;8348868;28;20346;-65
2021/05/21 08:55:46;;;;;;;;;;;16.10;99.90;;;;;;8347244;28;19971;-66
2021/05/21 08:59:47;;;;;;;;;;;15.60;99.90;;;;;;8344133;28;19983;-64
2021/05/21 09:03:50;;;;;;;;;;;14.90;99.90;;;;;;8355777;28;19917;-65
2021/05/21 09:07:50;;;;;;;;;;;14.40;99.90;;;;;;8346127;28;20295;-65
2021/05/21 09:11:52;;;;;;;;;;;14.20;99.90;;;;;;8340965;28;20016;-65
2021/05/21 09:15:53;;;;;;;;;;;13.80;99.90;;;;;;8346553;28;20066;-65
2021/05/21 09:19:53;;;;;;;;;;;13.40;99.90;;;;;;8359277;28;19913;-66
2021/05/21 09:24:03;;;;;;;;;;;13.00;99.90;;;;;;8337598;28;19925;-65
2021/05/21 09:28:04;;;;;;;;;;;12.80;99.90;;;;;;8356682;28;19913;-66
2021/05/21 09:32:23;;;;;;;;;;;12.70;99.90;;;;;;8350250;28;19920;-66
2021/05/21 09:36:27;;;;;;;;;;;12.50;99.90;;;;;;8339214;28;19920;-66
2021/05/21 09:40:28;;;;;;;;;;;12.40;99.90;;;;;;8324194;28;19960;-66
2021/05/21 09:44:33;;;;;;;;;;;12.10;99.90;;;;;;8342479;28;20016;-66
2021/05/21 09:48:34;;;;;;;;;;;11.90;99.90;;;;;;8321910;28;19909;-65
2021/05/21 09:52:43;;;;;;;;;;;11.90;99.90;;;;;;8335902;28;19913;-66
2021/05/21 09:56:58;;;;;;;;;;;12.00;99.90;;;;;;8338332;28;19913;-66
2021/05/21 10:01:12;;;;;;;;;;;12.20;99.90;;;;;;8340621;28;20276;-66
2021/05/21 10:05:12;;;;;;;;;;;12.40;99.90;;;;;;8343690;28;20331;-67
2021/05/21 10:09:13;;;;;;;;;;;12.60;99.90;;;;;;8340874;28;19962;-66
2021/05/21 10:13:13;;;;;;;;;;;12.60;99.90;;;;;;8337055;28;19932;-65
2021/05/21 10:17:24;;;;;;;;;;;12.70;99.90;;;;;;8324163;28;19959;-66
2021/05/21 10:21:25;;;;;;;;;;;12.70;99.90;;;;;;8349578;28;20404;-66
2021/05/21 10:25:28;;;;;;;;;;;12.60;99.90;;;;;;8348521;28;19913;-66
2021/05/21 10:29:31;;;;;;;;;;;12.40;99.90;;;;;;8336440;28;20360;-66
2021/05/21 10:33:32;;;;;;;;;;;12.30;99.90;;;;;;8341228;28;20367;-65
2021/05/21 10:37:36;;;;;;;;;;;12.30;99.90;;;;;;8357837;28;19913;-66
2021/05/21 10:41:37;;;;;;;;;;;12.20;99.90;;;;;;8344749;28;20406;-65
2021/05/21 10:45:51;;;;;;;;;;;12.10;99.90;;;;;;8336643;28;19971;-66
2021/05/21 10:49:52;;;;;;;;;;;11.90;99.90;;;;;;8345051;28;19917;-66
2021/05/21 10:54:11;;;;;;;;;;;11.80;99.90;;;;;;8355880;28;20299;-66
2021/05/21 10:58:15;;;;;;;;;;;11.70;99.90;;;;;;8338076;28;20387;-66
2021/05/21 11:02:17;;;;;;;;;;;11.60;99.90;;;;;;8340595;28;19913;-66
2021/05/21 11:06:20;;;;;;;;;;;11.50;99.90;;;;;;8357688;28;19939;-66
2021/05/21 11:10:24;;;;;;;;;;;11.60;99.90;;;;;;8357869;28;20008;-66
2021/05/21 11:14:25;;;;;;;;;;;11.60;99.90;;;;;;8338966;28;19940;-67
2021/05/21 11:18:26;;;;;;;;;;;11.40;99.90;;;;;;8357266;28;19913;-67
2021/05/21 11:22:27;;;;;;;;;;;11.50;99.90;;;;;;8356312;28;20386;-67
2021/05/21 11:26:27;;;;;;;;;;;11.60;99.90;;;;;;8356629;28;19917;-67
2021/05/21 11:30:31;;;;;;;;;;;11.60;99.90;;;;;;8356939;28;19966;-67
2021/05/21 11:34:31;;;;;;;;;;;11.80;99.90;;;;;;8354237;28;19924;-67
2021/05/21 11:38:32;;;;;;;;;;;11.90;99.90;;;;;;8342710;28;19913;-67
2021/05/21 11:42:35;;;;;;;;;;;11.90;99.90;;;;;;8336227;28;20361;-67
2021/05/21 11:46:37;;;;;;;;;;;11.90;99.90;;;;;;8319678;28;20007;-67
2021/05/21 11:50:38;;;;;;;;;;;11.90;99.90;;;;;;8355052;28;19923;-67
2021/05/21 11:54:40;;;;;;;;;;;11.60;99.90;;;;;;8362887;28;19909;-67
2021/05/21 11:58:41;;;;;;;;;;;11.60;99.90;;;;;;8344340;28;19913;-66
2021/05/21 12:02:41;;;;;;;;;;;11.70;99.90;;;;;;8361796;28;19921;-68
2021/05/21 12:06:43;;;;;;;;;;;11.70;99.90;;;;;;8336065;28;20363;-67
2021/05/21 12:10:54;;;;;;;;;;;11.70;99.90;;;;;;8354817;28;19912;-67
2021/05/21 12:15:11;;;;;;;;;;;11.70;99.90;;;;;;8337874;28;19917;-68
2021/05/21 12:19:12;;;;;;;;;;;11.50;99.90;;;;;;8352766;28;19920;-67
2021/05/21 12:23:13;;;;;;;;;;;11.50;99.90;;;;;;8360238;28;20470;-67
2021/05/21 12:27:14;;;;;;;;;;;11.60;99.90;;;;;;8362828;28;19913;-66
2021/05/21 12:31:18;;;;;;;;;;;11.50;99.90;;;;;;8356316;28;19920;-66
2021/05/21 12:35:19;;;;;;;;;;;11.30;99.90;;;;;;8360138;28;20398;-67
2021/05/21 12:39:19;;;;;;;;;;;11.30;99.90;;;;;;8359608;28;19921;-67
2021/05/21 12:43:20;;;;;;;;;;;11.30;99.90;;;;;;8361229;28;19923;-67
2021/05/21 12:47:21;;;;;;;;;;;11.30;99.90;;;;;;8359857;28;19913;-68
2021/05/21 12:51:22;;;;;;;;;;;11.20;99.90;;;;;;8357121;28;19921;-67
2021/05/21 12:55:25;;;;;;;;;;;11.30;99.90;;;;;;8328074;28;20587;-67
2021/05/21 12:59:32;;;;;;;;;;;11.30;99.90;;;;;;8359884;28;20280;-67
2021/05/21 13:03:52;;;;;;;;;;;11.20;99.90;;;;;;8358684;28;19931;-67
2021/05/21 13:07:57;;;;;;;;;;;11.20;99.90;;;;;;8327970;28;19968;-67
2021/05/21 13:12:02;;;;;;;;;;;11.20;99.90;;;;;;8350885;28;19917;-68
2021/05/21 13:16:03;;;;;;;;;;;11.10;99.90;;;;;;8360473;28;20417;-67
2021/05/21 13:20:04;;;;;;;;;;;11.10;99.90;;;;;;8360671;28;19912;-67
2021/05/21 13:24:08;;;;;;;;;;;11.10;99.90;;;;;;8360099;28;19921;-67
2021/05/21 13:28:09;;;;;;;;;;;11.10;99.90;;;;;;8360215;28;19913;-67
2021/05/21 13:32:09;;;;;;;;;;;11.10;99.90;;;;;;8358987;28;20371;-68
2021/05/21 13:36:10;;;;;;;;;;;11.20;99.90;;;;;;8356026;28;19939;-67
2021/05/21 13:40:11;;;;;;;;;;;11.30;99.90;;;;;;8334185;28;19912;-67
2021/05/21 13:44:11;;;;;;;;;;;11.30;99.90;;;;;;8333763;28;19958;-67
2021/05/21 13:48:12;;;;;;;;;;;11.40;99.90;;;;;;8340627;28;19964;-67
2021/05/21 13:52:12;;;;;;;;;;;11.70;99.90;;;;;;8336151;28;20499;-67
2021/05/21 13:56:13;;;;;;;;;;;11.80;99.90;;;;;;8332204;28;20376;-66
2021/05/21 14:00:14;;;;;;;;;;;11.90;99.90;;;;;;8346626;28;20292;-67
2021/05/21 14:04:15;;;;;;;;;;;11.90;99.90;;;;;;8347930;28;19917;-67
2021/05/21 14:08:16;;;;;;;;;;;11.80;99.90;;;;;;8355206;28;20368;-68
2021/05/21 14:12:17;;;;;;;;;;;11.60;99.90;;;;;;8356197;28;19919;-68
2021/05/21 14:16:18;;;;;;;;;;;11.70;99.90;;;;;;8339285;28;20025;-70
2021/05/21 14:20:18;;;;;;;;;;;11.70;99.90;;;;;;8332938;28;19945;-68
2021/05/21 14:24:20;;;;;;;;;;;11.60;99.90;;;;;;8350341;28;19983;-66
2021/05/21 14:28:21;;;;;;;;;;;11.60;99.90;;;;;;8344274;28;20035;-67
2021/05/21 14:32:22;;;;;;;;;;;11.50;99.90;;;;;;8337264;28;19919;-67
2021/05/21 14:36:22;;;;;;;;;;;11.40;99.90;;;;;;8348290;28;20500;-66
2021/05/21 14:40:23;;;;;;;;;;;11.50;99.90;;;;;;8339003;28;19967;-67
2021/05/21 14:44:24;;;;;;;;;;;11.60;99.90;;;;;;8352083;28;19923;-67
2021/05/21 14:48:26;;;;;;;;;;;11.60;99.90;;;;;;8343522;28;19936;-67
2021/05/21 14:52:27;;;;;;;;;;;11.50;99.90;;;;;;8354815;28;19935;-66
2021/05/21 14:56:27;;;;;;;;;;;11.50;99.90;;;;;;8341005;28;20283;-68
2021/05/21 15:00:28;;;;;;;;;;;11.60;99.90;;;;;;8322136;28;19916;-67
2021/05/21 15:04:35;;;;;;;;;;;11.50;99.90;;;;;;8329905;28;19917;-66
2021/05/21 15:08:36;;;;;;;;;;;11.50;99.90;;;;;;8338295;28;20646;-67
2021/05/21 15:12:37;;;;;;;;;;;11.60;99.90;;;;;;8349070;28;19917;-68
2021/05/21 15:25:03;;;;;;;;;;;11.60;99.90;;;;;;8353115;28;20055;-68
2021/05/21 15:29:03;;;;;;;;;;;11.50;99.90;;;;;;8357624;28;19909;-68
2021/05/21 15:33:04;;;;;;;;;;;11.50;99.90;;;;;;8345119;28;19909;-68
2021/05/21 15:37:04;;;;;;;;;;;11.50;99.90;;;;;;8361589;28;20015;-68
2021/05/21 15:41:10;;;;;;;;;;;11.50;99.90;;;;;;8354615;28;20597;-67
2021/05/21 15:45:29;;;;;;;;;;;11.60;99.90;;;;;;8356524;28;19917;-68
2021/05/21 15:49:37;;;;;;;;;;;11.30;99.90;;;;;;8361788;28;20294;-68
2021/05/21 15:57:56;;;;;;;;;;;11.10;99.90;;;;;;8343295;28;19917;-68
2021/05/21 16:01:58;;;;;;;;;;;11.00;99.90;;;;;;8356617;28;19921;-68
2021/05/21 16:05:59;;;;;;;;;;;11.00;99.90;;;;;;8361294;28;20295;-68
2021/05/21 16:09:59;;;;;;;;;;;11.00;99.90;;;;;;8345210;28;19909;-69
2021/05/21 16:14:00;;;;;;;;;;;11.00;99.90;;;;;;8362229;28;20363;-69
2021/05/21 16:18:01;;;;;;;;;;;10.90;99.90;;;;;;8343896;28;20066;-68
2021/05/21 16:22:02;;;;;;;;;;;10.80;99.90;;;;;;8359835;28;19921;-68
2021/05/21 16:26:02;;;;;;;;;;;10.80;99.90;;;;;;8353993;28;19913;-68
2021/05/21 16:30:04;;;;;;;;;;;10.70;99.90;;;;;;8325498;28;20047;-68
2021/05/21 16:34:06;;;;;;;;;;;10.60;99.90;;;;;;8341014;28;20295;-68
2021/05/21 16:38:07;;;;;;;;;;;10.60;99.90;;;;;;8346332;28;20400;-68
2021/05/21 16:42:08;;;;;;;;;;;10.60;99.90;;;;;;8327886;28;19923;-68
2021/05/21 16:46:09;;;;;;;;;;;10.60;99.90;;;;;;8346661;28;19927;-69
2021/05/21 16:50:10;;;;;;;;;;;10.70;99.90;;;;;;8348094;28;19923;-66
2021/05/21 16:54:11;;;;;;;;;;;10.70;99.90;;;;;;8341402;28;19917;-67
2021/05/21 16:58:11;;;;;;;;;;;10.70;99.90;;;;;;8337586;28;20319;-67
2021/05/21 17:02:13;;;;;;;;;;;10.60;99.90;;;;;;8357927;28;19925;-67
2021/05/21 17:06:13;;;;;;;;;;;10.50;99.90;;;;;;8357663;28;20015;-67
2021/05/21 17:10:15;;;;;;;;;;;10.40;99.90;;;;;;8358477;28;19936;-67
2021/05/21 17:14:21;;;;;;;;;;;10.40;99.90;;;;;;8314273;28;19913;-67
2021/05/21 17:18:45;;;;;;;;;;;10.40;99.90;;;;;;8334770;28;19921;-67
2021/05/21 17:44:12;;;;;;;;;;;10.00;99.90;;;;;;8330668;28;20051;-68
2021/05/21 17:48:23;;;;;;;;;;;9.90;99.90;;;;;;8358824;28;19923;-68
2021/05/21 17:52:43;;;;;;;;;;;9.90;99.90;;;;;;8358399;28;20383;-68
2021/05/21 18:05:57;;;;;;;;;;;9.70;99.90;;;;;;8346213;28;19975;-67
2021/05/21 18:10:25;;;;;;;;;;;9.70;99.90;;;;;;8342417;28;19912;-67
2021/05/21 19:05:25;;;;;;;;;;;9.30;99.90;;;;;;8361890;28;19958;-66
2021/05/21 19:09:35;;;;;;;;;;;9.30;99.90;;;;;;8364481;28;19909;-66
2021/05/21 19:17:50;;;;;;;;;;;9.30;99.90;;;;;;8362225;28;19919;-66
2021/05/21 19:21:52;;;;;;;;;;;9.20;99.90;;;;;;8364733;28;19924;-67
2021/05/21 19:25:55;;;;;;;;;;;9.20;99.90;;;;;;8358279;28;20307;-67
2021/05/21 19:29:58;;;;;;;;;;;9.20;99.90;;;;;;8354578;28;20626;-73
2021/05/21 19:42:45;;;;;;;;;;;9.10;99.90;;;;;;8363050;28;19924;-73
2021/05/21 20:12:23;;;;;;;;;;;9.00;99.90;;;;;;8358918;28;19917;-69
2021/05/21 20:16:23;;;;;;;;;;;8.90;99.90;;;;;;8361914;28;19913;-70
2021/05/21 20:20:24;;;;;;;;;;;8.80;99.90;;;;;;8362926;28;19999;-69
2021/05/21 20:24:27;;;;;;;;;;;8.80;99.90;;;;;;8344417;28;19936;-69
2021/05/21 20:28:33;;;;;;;;;;;8.70;99.90;;;;;;8362528;28;20375;-69
2021/05/21 20:32:43;;;;;;;;;;;8.60;99.90;;;;;;8359200;28;20268;-69
2021/05/21 21:02:50;;;;;;;;;;;8.40;99.90;;;;;;8360701;28;19967;-68
2021/05/21 21:15:39;;;;;;;;;;;8.20;99.90;;;;;;8361398;28;19989;-69
2021/05/21 21:47:10;;;;;;;;;;;8.10;99.90;;;;;;8358307;28;20288;-68
2021/05/21 21:54:14;;;;;;;;;;;8.10;99.90;;;;;;8359317;28;20016;-68
2021/05/21 21:58:20;;;;;;;;;;;8.10;99.90;;;;;;8338917;28;19913;-70
2021/05/21 22:02:40;;;;;;;;;;;8.00;99.90;;;;;;8341802;28;20276;-69
2021/05/21 22:16:00;;;;;;;;;;;7.80;99.90;;;;;;8317876;28;19924;-70
2021/05/21 22:20:10;;;;;;;;;;;7.80;99.90;;;;;;8359118;28;20444;-70
2021/05/21 22:24:19;;;;;;;;;;;7.80;99.90;;;;;;8340921;28;19923;-69
2021/05/21 22:28:20;;;;;;;;;;;7.70;99.90;;;;;;8358903;28;19916;-70
2021/05/21 22:32:20;;;;;;;;;;;7.80;99.90;;;;;;8358869;28;19916;-69
2021/05/21 22:36:21;;;;;;;;;;;7.70;99.90;;;;;;8354818;28;19917;-70
2021/05/21 22:40:23;;;;;;;;;;;7.80;99.90;;;;;;8356697;28;20281;-69
2021/05/21 22:44:25;;;;;;;;;;;7.80;99.90;;;;;;8355377;28;19920;-70
2021/05/21 22:48:26;;;;;;;;;;;7.80;99.90;;;;;;8341041;28;19969;-70
2021/05/21 22:52:27;;;;;;;;;;;7.70;99.90;;;;;;8353578;28;19912;-69
2021/05/21 22:56:27;;;;;;;;;;;7.70;99.90;;;;;;8358164;28;19927;-70
2021/05/21 23:00:28;;;;;;;;;;;7.60;99.90;;;;;;8358950;28;20508;-70
2021/05/21 23:04:28;;;;;;;;;;;7.50;99.90;;;;;;8339994;28;19928;-70
2021/05/21 23:08:28;;;;;;;;;;;7.50;99.90;;;;;;8358047;28;19909;-69
2021/05/21 23:12:29;;;;;;;;;;;7.40;99.90;;;;;;8358345;28;19909;-70
2021/05/21 23:16:29;;;;;;;;;;;7.40;99.90;;;;;;8340297;28;20445;-70
2021/05/21 23:20:30;;;;;;;;;;;7.30;99.90;;;;;;8358098;28;19909;-70
2021/05/21 23:24:31;;;;;;;;;;;7.20;99.90;;;;;;8357891;28;19912;-70
2021/05/21 23:28:31;;;;;;;;;;;7.20;99.90;;;;;;8358223;28;19991;-71
2021/05/21 23:32:32;;;;;;;;;;;7.10;99.90;;;;;;8337907;28;19916;-70
2021/05/21 23:36:32;;;;;;;;;;;7.10;99.90;;;;;;8357678;28;19921;-70
2021/05/21 23:40:33;;;;;;;;;;;7.10;99.90;;;;;;8340517;28;20035;-70
2021/05/21 23:44:33;;;;;;;;;;;7.10;99.90;;;;;;8339582;28;19970;-70
2021/05/21 23:48:34;;;;;;;;;;;7.10;99.90;;;;;;8360889;28;19912;-70
2021/05/21 23:52:35;;;;;;;;;;;7.10;99.90;;;;;;8363219;28;19920;-71
2021/05/21 23:56:35;;;;;;;;;;;7.10;99.90;;;;;;8363076;28;20007;-71
